Wessington, SD (57381)

4:56 AM CDT on September 20, 2014 (GMT -0500)
Wessington Springs Hills | Change Station
CLOSE
Current Station
Personal Weather Station
Location: Wessington Springs, SD
Elevation: 1683 ft
Nearby Weather Stations

Elev 1683 ft 44.08 °N, 98.57 °W | Updated 6 minutes ago

Partly Cloudy
Partly Cloudy
65.5 °F
Feels Like 65.5 °F
N
2.0
Wind Variable Wind from NW
Gusts 7.0 mph

Today
High -- | Low -- °F
--% Chance of Precip.
Yesterday
High -- | Low -- °F
Precip. -- in
7:19 AM 7:35 PM
Waning Crescent, 13% visible
Pressure 29.81 in
Visibility 10.0 miles
Clouds Clear
Dew Point 56 °F
Humidity 70%
Rainfall 0.00 in
Snow Depth 0 in
UV 0 out of 12
Pollen 5.50 out of 12
Air Quality Not available.
Flu Activity Not available.
METAR KHON 200855Z AUTO 32006KT 10SM CLR 14/11 A2983 RMK AO2 SLP094 T01440106 51021

More Conditions Fewer Conditions

Pressure 29.81 in
Visibility 10.0 miles
Clouds Clear
Dew Point 56 °F
Humidity 70%
Rainfall 0.00 in
Snow Depth 0 in
UV 0 out of 12
Pollen 5.50 out of 12
Air Quality Not available.
Flu Activity Not available.
METAR KHON 200855Z AUTO 32006KT 10SM CLR 14/11 A2983 RMK AO2 SLP094 T01440106 51021

More Conditions Fewer Conditions

10-Day Weather Forecast

Almanac

Astronomy

Sep. 20, 2014 Rise Set
Actual Time 7:19 AM CDT 7:35 PM CDT
Civil Twilight 6:50 AM CDT 8:04 PM CDT
Nautical Twilight 6:16 AM CDT 8:38 PM CDT
Astronomical Twilight 5:41 AM CDT 9:13 PM CDT
Moon 3:53 AM CDT 5:45 PM CDT
Length of Visible Light 13h 14m
Length of Day
12h 16m
Tomorrow will be 3m 3s shorter.
Waning Crescent, 13% of the Moon is Illuminated
Today
Waning Crescent
Sep 24
New
Oct 1
First Quarter
Oct 8
Full
Oct 15
Last Quarter

Today's Extremes

State Highs State Lows

Community

WunderPhotos

Upload Photos

1,754,794 photos uploaded!

WunderBlogs® & News

Nearby

Snow Depth

Station Depth Elevation
Blind Park 0 in 6890 ft

Earthquake Activity

City Distance Mag. Time & Date
No recent earthquake activity has been reported nearby.
Minimum magnitude displayed is 2.5.

Coastal Water Temperatures

Place Temperature
No Stations Reporting

Nearby Weather Stations